Time;durP1;ratioP1;P1;durP2;ratioP2;P2;SDS_P1;SDS_P2;PMS_P1;PMS_P2;Temp;Humidity;BMP_temperature;BMP_pressure;BME280_temperature;BME280_humidity;BME280_pressure;Samples;Min_cycle;Max_cycle;Signal;HPM_P1;HPM_P2
2022/05/24 00:01:57;;;;;;;17.23;6.78;;;;;;;13.24;100.00;100176.19;7379671;19;20060;-74
2022/05/24 00:04:27;;;;;;;15.65;6.97;;;;;;;13.21;100.00;100173.59;7377196;19;20703;-74
2022/05/24 00:07:00;;;;;;;15.60;6.22;;;;;;;13.21;100.00;100170.06;7380970;19;20718;-74
2022/05/24 00:09:30;;;;;;;17.90;6.90;;;;;;;13.16;100.00;100167.47;7379230;19;20028;-73
2022/05/24 00:12:00;;;;;;;15.27;5.95;;;;;;;13.12;100.00;100175.38;7381240;19;20060;-73
2022/05/24 00:17:13;;;;;;;15.67;6.23;;;;;;;13.06;100.00;100182.44;7377931;19;20021;-70
2022/05/24 00:19:43;;;;;;;12.68;5.72;;;;;;;13.03;100.00;100181.59;7376243;19;20022;-71
2022/05/24 00:22:16;;;;;;;13.18;6.53;;;;;;;13.03;100.00;100177.19;7376824;19;20010;-70
2022/05/24 00:24:46;;;;;;;15.68;5.93;;;;;;;13.03;100.00;100181.59;7382234;19;20048;-70
2022/05/24 00:27:17;;;;;;;14.88;7.70;;;;;;;13.04;100.00;100180.69;7376570;19;20018;-70
2022/05/24 00:29:47;;;;;;;12.70;5.47;;;;;;;13.03;100.00;100171.06;7377526;19;20018;-71
2022/05/24 00:32:17;;;;;;;17.02;7.40;;;;;;;13.03;100.00;100178.94;7377430;19;20029;-75
2022/05/24 00:34:50;;;;;;;18.95;7.57;;;;;;;13.02;100.00;100179.84;7377796;19;20023;-75
2022/05/24 00:37:27;;;;;;;25.02;10.82;;;;;;;13.03;100.00;100177.19;7376940;19;20777;-75
2022/05/24 00:39:57;;;;;;;30.23;12.77;;;;;;;12.99;100.00;100170.19;7378305;19;20018;-75
2022/05/24 00:42:32;;;;;;;28.63;13.05;;;;;;;12.97;100.00;100155.31;7377015;19;20206;-74
2022/05/24 00:45:06;;;;;;;23.58;13.07;;;;;;;12.93;100.00;100153.59;7380163;19;20565;-75
2022/05/24 00:47:43;;;;;;;27.23;12.93;;;;;;;12.87;100.00;100151.00;7375632;19;20002;-74
2022/05/24 00:50:16;;;;;;;27.52;13.40;;;;;;;12.85;100.00;100144.88;7373541;19;20092;-75
2022/05/24 00:52:56;;;;;;;25.70;12.15;;;;;;;12.81;100.00;100153.66;7374338;19;20060;-74
2022/05/24 00:55:28;;;;;;;23.38;11.57;;;;;;;12.76;100.00;100167.72;7376143;19;20018;-75
2022/05/24 00:58:05;;;;;;;26.08;11.98;;;;;;;12.76;100.00;100188.78;7377268;19;20652;-71
2022/05/24 01:00:35;;;;;;;19.30;10.80;;;;;;;12.77;100.00;100179.13;7378244;19;20010;-72
2022/05/24 01:03:06;;;;;;;19.70;10.02;;;;;;;12.76;100.00;100188.78;7376133;19;20047;-70
2022/05/24 01:05:36;;;;;;;25.70;9.77;;;;;;;12.77;100.00;100184.38;7377658;19;20015;-69
2022/05/24 01:08:10;;;;;;;23.17;9.82;;;;;;;12.75;100.00;100180.88;7375204;19;20047;-70
2022/05/24 01:10:45;;;;;;;23.10;9.95;;;;;;;12.75;100.00;100181.75;7371511;19;20048;-70
2022/05/24 01:13:19;;;;;;;15.85;9.05;;;;;;;12.69;100.00;100184.44;7373553;19;20246;-70
2022/05/24 01:15:51;;;;;;;19.15;8.43;;;;;;;12.65;100.00;100180.06;7374690;19;20014;-70
2022/05/24 01:18:23;;;;;;;17.92;7.55;;;;;;;12.62;100.00;100180.09;7372039;19;20378;-72
2022/05/24 01:20:58;;;;;;;15.30;8.15;;;;;;;12.60;100.00;100191.50;7377817;19;20059;-71
2022/05/24 01:23:51;;;;;;;19.88;9.05;;;;;;;12.61;100.00;100183.59;7376766;19;20491;-74
2022/05/24 01:26:30;;;;;;;19.05;9.38;;;;;;;12.60;100.00;100171.31;7376451;19;20044;-70
2022/05/24 01:29:06;;;;;;;15.68;7.13;;;;;;;12.64;100.00;100178.31;7374607;19;20049;-70
2022/05/24 01:37:03;;;;;;;;;;;;;;;12.57;100.00;100186.25;7377723;19;20573;-75
2022/05/24 01:39:33;;;;;;;18.80;9.00;;;;;;;12.55;100.00;100178.38;7375346;19;19948;-75
2022/05/24 01:42:03;;;;;;;20.85;8.23;;;;;;;12.57;100.00;100176.59;7376985;19;20018;-73
2022/05/24 01:44:41;;;;;;;17.00;9.15;;;;;;;12.58;100.00;100167.84;7375497;19;20014;-75
2022/05/24 01:47:13;;;;;;;20.58;8.23;;;;;;;12.52;100.00;100167.88;7379508;19;20736;-75
2022/05/24 01:49:47;;;;;;;17.13;9.38;;;;;;;12.51;100.00;100166.13;7375777;19;20014;-70
2022/05/24 01:52:20;;;;;;;16.42;8.45;;;;;;;12.53;100.00;100164.34;7379122;19;20051;-70
2022/05/24 01:54:55;;;;;;;19.83;9.60;;;;;;;12.51;100.00;100160.84;7375685;19;20026;-69
2022/05/24 01:57:28;;;;;;;17.70;9.35;;;;;;;12.51;100.00;100163.50;7376257;19;20074;-70
2022/05/24 02:00:04;;;;;;;;;;;;;;;12.49;100.00;100157.38;7377066;19;20015;-70
2022/05/24 02:02:34;;;;;;;23.00;10.30;;;;;;;12.58;100.00;100166.97;7375504;19;19918;-71
2022/05/24 02:05:05;;;;;;;24.90;11.32;;;;;;;12.54;100.00;100160.84;7375070;19;20015;-70
2022/05/24 02:07:35;;;;;;;26.50;10.50;;;;;;;12.55;100.00;100153.81;7374630;19;20015;-73
2022/05/24 02:10:06;;;;;;;21.15;11.32;;;;;;;12.55;100.00;100159.97;7375114;19;20019;-75
2022/05/24 02:12:41;;;;;;;20.92;11.02;;;;;;;12.59;100.00;100169.59;7375698;19;20019;-73
2022/05/24 02:15:18;;;;;;;27.05;11.75;;;;;;;12.58;100.00;100167.84;7374176;19;20039;-70
2022/05/24 02:17:52;;;;;;;25.38;11.57;;;;;;;12.54;100.00;100160.84;7372324;19;20226;-73
2022/05/24 02:20:26;;;;;;;26.75;11.45;;;;;;;12.55;100.00;100159.09;7372237;19;20117;-73
2022/05/24 02:22:56;;;;;;;20.95;11.15;;;;;;;12.59;100.00;100163.44;7374490;19;20600;-70
2022/05/24 02:25:33;;;;;;;29.20;11.90;;;;;;;12.58;100.00;100157.31;7375484;19;20047;-70
2022/05/24 02:28:08;;;;;;;26.65;13.02;;;;;;;12.54;100.00;100145.06;7376111;19;20031;-71
2022/05/24 02:30:43;;;;;;;28.38;12.95;;;;;;;12.57;100.00;100146.81;7373420;19;20006;-70
2022/05/24 02:33:13;;;;;;;24.08;12.50;;;;;;;12.58;100.00;100146.78;7375889;19;20015;-70
2022/05/24 02:35:43;;;;;;;31.15;14.18;;;;;;;12.57;100.00;100145.03;7374400;19;20021;-70
2022/05/24 02:38:14;;;;;;;23.77;12.00;;;;;;;12.60;100.00;100150.28;7373439;19;20078;-70
2022/05/24 02:43:26;;;;;;;24.83;11.02;;;;;;;12.57;100.00;100152.94;7377471;19;20349;-70
2022/05/24 02:45:59;;;;;;;22.88;11.70;;;;;;;12.54;100.00;100145.06;7378157;19;20027;-71
2022/05/24 02:48:29;;;;;;;19.10;10.30;;;;;;;12.62;100.00;100158.16;7374053;19;20015;-72
2022/05/24 02:50:59;;;;;;;26.48;10.15;;;;;;;12.58;100.00;100157.31;7375127;19;20010;-70
2022/05/24 02:53:29;;;;;;;22.90;11.23;;;;;;;12.56;100.00;100161.72;7374281;19;20010;-71
2022/05/24 02:56:03;;;;;;;24.42;10.75;;;;;;;12.57;100.00;100166.09;7375616;19;20017;-70
2022/05/24 02:58:34;;;;;;;24.30;9.93;;;;;;;12.58;100.00;100153.81;7378182;19;20559;-71
2022/05/24 03:01:13;;;;;;;24.25;9.55;;;;;;;12.58;100.00;100167.84;7377924;19;20048;-70
2022/05/24 03:03:43;;;;;;;19.63;9.20;;;;;;;12.52;100.00;100165.25;7377071;19;20409;-70
2022/05/24 03:06:13;;;;;;;20.00;8.95;;;;;;;12.51;100.00;100165.25;7374694;19;20011;-70
2022/05/24 03:11:26;;;;;;;21.20;8.85;;;;;;;12.41;100.00;100167.94;7372683;19;20387;-70
2022/05/24 03:16:41;;;;;;;14.98;6.72;;;;;;;12.33;100.00;100166.25;7374031;19;20010;-70
2022/05/24 03:19:11;;;;;;;21.50;7.77;;;;;;;12.35;100.00;100175.00;7374016;19;20472;-71
2022/05/24 03:21:43;;;;;;;18.83;7.13;;;;;;;12.40;100.00;100184.63;7372298;19;20922;-74
2022/05/24 03:24:13;;;;;;;13.48;5.28;;;;;;;12.41;100.00;100177.59;7372782;19;20022;-74
2022/05/24 03:26:43;;;;;;;13.80;4.43;;;;;;;12.41;100.00;100182.84;7372777;19;20376;-71
2022/05/24 03:29:13;;;;;;;15.02;4.07;;;;;;;12.35;100.00;100185.50;7375467;19;20006;-70
2022/05/24 03:31:45;;;;;;;11.05;3.83;;;;;;;12.31;100.00;100192.53;7371885;19;20060;-70
2022/05/24 03:34:17;;;;;;;13.50;3.45;;;;;;;12.29;100.00;100193.44;7374690;19;20021;-71
2022/05/24 03:36:47;;;;;;;11.10;4.00;;;;;;;12.23;100.00;100190.81;7374010;19;20022;-70
2022/05/24 03:39:17;;;;;;;13.13;3.78;;;;;;;12.22;100.00;100187.31;7372838;19;20532;-71
2022/05/24 03:41:47;;;;;;;10.50;4.53;;;;;;;12.24;100.00;100198.69;7374894;19;20130;-71
2022/05/24 03:44:17;;;;;;;10.02;4.43;;;;;;;12.22;100.00;100197.84;7374106;19;20022;-74
2022/05/24 03:46:49;;;;;;;16.33;5.72;;;;;;;12.26;100.00;100207.47;7373928;19;20011;-75
2022/05/24 03:49:19;;;;;;;19.45;7.13;;;;;;;12.27;100.00;100208.34;7373039;19;20019;-70
2022/05/24 03:51:49;;;;;;;17.33;7.22;;;;;;;12.30;100.00;100205.69;7369850;19;20673;-70
2022/05/24 03:54:20;;;;;;;15.57;7.93;;;;;;;12.31;100.00;100220.59;7372482;19;20022;-71
2022/05/24 03:59:36;;;;;;;24.67;11.02;;;;;;;12.25;100.00;100239.88;7373499;19;20053;-69
2022/05/24 04:02:09;;;;;;;25.08;11.77;;;;;;;12.16;100.00;100247.81;7369845;19;20017;-73
2022/05/24 04:04:39;;;;;;;22.90;11.80;;;;;;;12.13;100.00;100249.56;7375161;19;20021;-68
2022/05/24 04:07:09;;;;;;;20.38;11.23;;;;;;;12.08;100.00;100249.56;7374627;19;20007;-69
2022/05/24 04:09:39;;;;;;;23.25;11.63;;;;;;;12.08;100.00;100244.31;7373632;19;20018;-68
2022/05/24 04:12:10;;;;;;;32.20;12.80;;;;;;;12.04;100.00;100248.72;7367501;19;20527;-68
2022/05/24 04:14:39;;;;;;;18.42;10.85;;;;;;;12.05;100.00;100245.19;7372615;19;20066;-68
2022/05/24 04:17:12;;;;;;;21.75;11.77;;;;;;;12.00;100.00;100240.81;7374716;19;20018;-68
2022/05/24 04:19:42;;;;;;;26.55;11.25;;;;;;;11.97;100.00;100240.84;7373817;19;20007;-68
2022/05/24 04:22:13;;;;;;;22.95;10.05;;;;;;;11.98;100.00;100238.19;7373807;19;20025;-68
2022/05/24 04:24:43;;;;;;;24.50;9.32;;;;;;;11.92;100.00;100246.09;7369505;19;20040;-69
2022/05/24 04:27:13;;;;;;;21.67;9.60;;;;;;;11.97;100.00;100251.34;7372872;19;20359;-72
2022/05/24 04:29:44;;;;;;;21.20;8.73;;;;;;;11.95;100.00;100248.72;7372285;19;20025;-68
2022/05/24 04:32:17;;;;;;;18.42;7.97;;;;;;;11.97;100.00;100244.34;7369239;19;20014;-68
2022/05/24 04:34:48;;;;;;;19.75;8.13;;;;;;;11.95;100.00;100237.34;7372621;19;20014;-73
2022/05/24 04:37:19;;;;;;;13.15;8.10;;;;;;;11.93;100.00;100253.09;7369036;19;20018;-73
2022/05/24 04:39:49;;;;;;;19.77;7.65;;;;;;;11.93;100.00;100249.59;7372941;19;20018;-73
2022/05/24 04:42:19;;;;;;;16.70;7.15;;;;;;;11.91;100.00;100243.47;7372304;19;20014;-74
2022/05/24 04:44:52;;;;;;;15.43;7.45;;;;;;;11.86;100.00;100243.47;7370745;19;20252;-73
2022/05/24 04:47:28;;;;;;;15.38;6.90;;;;;;;11.85;100.00;100239.09;7376831;19;20022;-73
2022/05/24 04:50:01;;;;;;;17.95;7.03;;;;;;;11.82;100.00;100240.84;7380805;19;20473;-73
2022/05/24 04:52:33;;;;;;;18.65;7.50;;;;;;;11.81;100.00;100245.25;7374740;19;20040;-73
2022/05/24 04:55:05;;;;;;;22.40;6.93;;;;;;;11.88;100.00;100239.09;7376961;19;20328;-73
2022/05/24 04:57:35;;;;;;;18.83;6.68;;;;;;;11.78;100.00;100248.75;7379569;19;20006;-73
2022/05/24 05:00:06;;;;;;;15.63;6.85;;;;;;;11.79;100.00;100254.88;7378035;19;20022;-74
2022/05/24 05:02:39;;;;;;;16.95;6.47;;;;;;;11.77;100.00;100260.13;7374212;19;20006;-73
2022/05/24 05:05:10;;;;;;;16.23;5.72;;;;;;;11.74;100.00;100259.22;7377263;19;20027;-74
2022/05/24 05:07:40;;;;;;;17.60;7.40;;;;;;;11.72;100.00;100271.47;7376082;19;20014;-74
2022/05/24 05:10:12;;;;;;;16.45;6.50;;;;;;;11.63;100.00;100274.09;7374653;19;20014;-74
2022/05/24 05:12:43;;;;;;;13.43;5.60;;;;;;;11.66;100.00;100287.25;7375144;19;20014;-74
2022/05/24 05:15:14;;;;;;;12.57;6.25;;;;;;;11.74;100.00;100278.50;7375323;19;20010;-74
2022/05/24 05:17:51;;;;;;;13.20;7.28;;;;;;;11.88;100.00;100282.88;7377812;19;20750;-74
2022/05/24 05:20:20;;;;;;;16.98;6.00;;;;;;;11.71;100.00;100298.63;7378286;19;20019;-70
2022/05/24 05:22:50;;;;;;;9.85;5.60;;;;;;;11.68;100.00;100285.50;7375163;19;20023;-70
2022/05/24 05:25:20;;;;;;;16.95;6.10;;;;;;;11.71;100.00;100293.38;7374911;19;20680;-75
2022/05/24 05:27:50;;;;;;;14.40;6.70;;;;;;;11.73;100.00;100291.63;7374278;19;21349;-73
2022/05/24 05:33:05;;;;;;;15.73;6.53;;;;;;;11.84;100.00;100297.78;7372826;19;20021;-73
2022/05/24 05:35:35;;;;;;;14.50;6.10;;;;;;;11.79;100.00;100294.28;7376627;19;20010;-74
2022/05/24 05:38:11;;;;;;;12.88;6.25;;;;;;;11.74;100.00;100294.25;7372816;19;20015;-74
2022/05/24 05:40:42;;;;;;;16.92;7.35;;;;;;;11.72;100.00;100309.13;7379293;19;20018;-73
2022/05/24 05:43:13;;;;;;;14.25;7.57;;;;;;;11.70;100.00;100310.00;7376808;19;20014;-70
2022/05/24 05:45:43;;;;;;;15.90;8.05;;;;;;;11.72;100.00;100319.63;7378155;19;20010;-73
2022/05/24 05:48:15;;;;;;;16.58;8.65;;;;;;;11.76;100.00;100326.66;7379120;19;20476;-74
2022/05/24 05:50:47;;;;;;;19.17;8.35;;;;;;;11.77;100.00;100327.56;7375496;19;20376;-73
2022/05/24 05:53:17;;;;;;;18.65;9.07;;;;;;;11.82;100.00;100330.19;7373549;19;20772;-71
2022/05/24 05:55:48;;;;;;;18.63;8.82;;;;;;;11.86;100.00;100335.44;7376087;19;20006;-71
2022/05/24 05:58:18;;;;;;;17.92;8.48;;;;;;;11.88;100.00;100331.06;7375641;19;20021;-70
2022/05/24 06:00:49;;;;;;;17.30;8.27;;;;;;;11.99;100.00;100331.06;7377164;19;20076;-70
2022/05/24 06:03:22;;;;;;;18.67;8.23;;;;;;;12.09;100.00;100336.31;7377031;19;20710;-70
2022/05/24 06:05:54;;;;;;;16.52;8.20;;;;;;;12.15;100.00;100339.81;7376896;19;20010;-71
2022/05/24 06:08:25;;;;;;;14.90;7.90;;;;;;;12.17;100.00;100340.69;7377204;19;20035;-70
2022/05/24 06:10:55;;;;;;;16.20;8.88;;;;;;;12.24;100.00;100347.69;7380967;19;20299;-71
2022/05/24 06:13:25;;;;;;;14.35;8.45;;;;;;;12.38;100.00;100344.16;7374509;19;20610;-71
2022/05/24 06:15:55;;;;;;;15.93;8.23;;;;;;;12.54;100.00;100350.22;7380086;19;20094;-70
2022/05/24 06:18:28;;;;;;;13.23;7.40;;;;;;;12.56;100.00;100347.59;7377862;19;20708;-69
2022/05/24 06:20:58;;;;;;;14.85;8.50;;;;;;;12.95;100.00;100351.84;7379158;19;20018;-71
2022/05/24 06:23:28;;;;;;;16.20;6.97;;;;;;;12.78;100.00;100351.91;7375879;19;20862;-71
2022/05/24 06:25:58;;;;;;;11.35;6.63;;;;;;;12.62;100.00;100364.22;7380494;19;20010;-69
2022/05/24 06:28:28;;;;;;;14.30;5.78;;;;;;;12.53;100.00;100359.00;7379260;19;20019;-70
2022/05/24 06:30:59;;;;;;;12.50;5.85;;;;;;;12.39;100.00;100376.59;7380150;19;20010;-73
2022/05/24 06:33:31;;;;;;;9.05;4.50;;;;;;;12.37;100.00;100383.59;7376150;19;20048;-72
2022/05/24 06:36:01;;;;;;;10.48;5.22;;;;;;;12.14;100.00;100382.75;7375831;19;20014;-73
2022/05/24 06:38:32;;;;;;;8.57;4.55;;;;;;;12.17;100.00;100401.16;7377222;19;20046;-73
2022/05/24 06:41:01;;;;;;;10.82;4.80;;;;;;;12.05;100.00;100387.13;7377630;19;20014;-73
2022/05/24 06:43:31;;;;;;;6.95;4.50;;;;;;;12.02;100.00;100396.75;7374068;19;20015;-71
2022/05/24 06:46:07;;;;;;;10.90;4.97;;;;;;;11.86;100.00;100402.88;7371361;19;20021;-71
2022/05/24 06:48:42;;;;;;;9.55;5.03;;;;;;;11.77;100.00;100403.75;7372671;19;20010;-71
2022/05/24 06:51:15;;;;;;;9.32;3.78;;;;;;;11.52;100.00;100405.41;7376959;19;20011;-72
2022/05/24 06:53:49;;;;;;;8.40;3.97;;;;;;;11.49;100.00;100408.03;7374337;19;20048;-72
2022/05/24 06:56:20;;;;;;;9.13;4.38;;;;;;;11.53;100.00;100408.91;7375335;19;20044;-72
2022/05/24 07:02:24;;;;;;;10.40;4.28;;;;;;;11.54;100.00;100402.78;7378578;19;20014;-72
2022/05/24 07:04:25;;;;;;;9.38;4.75;;;;;;;11.54;100.00;100408.91;7374526;19;20319;-72
2022/05/24 07:06:55;;;;;;;11.00;4.95;;;;;;;11.47;100.00;100407.16;7374954;19;20059;-73
2022/05/24 07:09:29;;;;;;;8.05;3.92;;;;;;;11.56;100.00;100422.06;7374655;19;20018;-73
2022/05/24 07:11:59;;;;;;;15.65;4.20;;;;;;;11.56;100.00;100420.31;7375199;19;20019;-72
2022/05/24 07:14:29;;;;;;;8.05;3.83;;;;;;;11.53;100.00;100433.44;7372759;19;20053;-74
2022/05/24 07:16:59;;;;;;;5.22;2.92;;;;;;;11.50;100.00;100440.41;7373498;19;20007;-72
2022/05/24 07:19:32;;;;;;;9.32;3.35;;;;;;;11.51;100.00;100439.53;7375635;19;20026;-73
2022/05/24 07:22:02;;;;;;;3.58;2.38;;;;;;;11.44;100.00;100442.16;7376471;19;20018;-72
2022/05/24 07:24:32;;;;;;;8.30;3.30;;;;;;;11.51;100.00;100445.69;7374188;19;20014;-72
2022/05/24 07:27:04;;;;;;;8.13;3.92;;;;;;;11.38;100.00;100441.28;7372852;19;20578;-72
2022/05/24 07:29:35;;;;;;;9.10;3.95;;;;;;;11.42;100.00;100445.69;7373010;19;20007;-73
2022/05/24 07:32:06;;;;;;;10.30;4.72;;;;;;;11.40;100.00;100443.06;7378254;19;20649;-72
2022/05/24 07:34:40;;;;;;;7.53;4.07;;;;;;;11.45;100.00;100441.28;7376386;19;20021;-73
2022/05/24 07:37:15;;;;;;;11.40;4.18;;;;;;;11.59;100.00;100448.31;7376391;19;20021;-73
2022/05/24 07:39:45;;;;;;;9.90;4.43;;;;;;;11.65;100.00;100453.59;7376299;19;20017;-69
2022/05/24 07:47:45;;;;;;;8.13;2.90;;;;;;;13.04;100.00;100452.72;7375879;19;20087;-73
2022/05/24 07:50:17;;;;;;;6.15;2.38;;;;;;;13.54;100.00;100458.69;7374579;19;20072;-73
2022/05/24 07:52:47;;;;;;;5.03;2.40;;;;;;;13.46;100.00;100460.50;7372612;19;20307;-73
2022/05/24 07:55:17;;;;;;;5.30;1.92;;;;;;;13.37;100.00;100464.94;7379295;19;20021;-73
2022/05/24 07:57:50;;;;;;;4.68;1.80;;;;;;;13.77;100.00;100477.88;7377518;19;20040;-69
2022/05/24 08:00:21;;;;;;;5.20;2.20;;;;;;;14.21;100.00;100456.50;7374980;19;20098;-73
2022/05/24 08:02:52;;;;;;;3.17;1.55;;;;;;;14.34;100.00;100454.66;7379644;19;20014;-73
2022/05/24 08:05:25;;;;;;;3.38;2.00;;;;;;;14.51;100.00;100460.69;7375601;19;20504;-74
2022/05/24 08:07:57;;;;;;;1.67;1.50;;;;;;;13.76;100.00;100470.84;7376886;19;20018;-69
2022/05/24 08:10:28;;;;;;;5.15;2.00;;;;;;;13.57;100.00;100475.34;7375173;19;20022;-70
2022/05/24 08:12:59;;;;;;;3.17;1.70;;;;;;;13.37;100.00;100486.00;7375257;19;20068;-69
2022/05/24 08:15:30;;;;;;;1.92;1.67;;;;;;;12.98;100.00;100492.22;7372567;19;20357;-70
2022/05/24 08:17:59;;;;;;;3.70;2.35;;;;;;;13.22;100.00;100503.59;7376611;19;20098;-69
2022/05/24 08:20:33;;;;;;;7.22;2.22;;;;;;;13.10;100.00;100509.75;7373057;19;20011;-69
2022/05/24 08:23:03;;;;;;;4.30;2.00;;;;;;;13.06;100.00;100503.63;7376048;19;20006;-69
2022/05/24 08:25:41;;;;;;;2.42;1.90;;;;;;;12.96;100.00;100519.44;7371493;19;20022;-68
2022/05/24 08:28:11;;;;;;;3.83;1.77;;;;;;;12.71;100.00;100516.81;7369585;19;20011;-72
2022/05/24 08:30:41;;;;;;;4.95;2.03;;;;;;;12.62;100.00;100522.09;7374005;19;20019;-73
2022/05/24 08:33:14;;;;;;;5.03;2.00;;;;;;;12.98;100.00;100520.31;7375925;19;20019;-74
2022/05/24 08:35:47;;;;;;;6.63;2.67;;;;;;;13.31;100.00;100520.25;7380606;19;20066;-73
2022/05/24 08:38:17;;;;;;;8.27;2.25;;;;;;;13.67;100.00;100529.75;7380242;19;20010;-74
2022/05/24 08:40:50;;;;;;;6.90;2.60;;;;;;;13.45;100.00;100532.50;7378093;19;20015;-75
2022/05/24 08:43:35;;;;;;;5.72;2.60;;;;;;;13.52;100.00;100529.81;7379200;19;20018;-76
2022/05/24 08:49:00;;;;;;;5.50;2.95;;;;;;;14.74;100.00;100537.00;7380081;19;20104;-70
2022/05/24 08:51:38;;;;;;;6.35;3.33;;;;;;;14.91;100.00;100534.22;7383241;19;20632;-75
2022/05/24 08:54:12;;;;;;;9.05;3.70;;;;;;;14.22;99.34;100540.00;7376296;19;20019;-74
2022/05/24 08:56:49;;;;;;;7.10;3.47;;;;;;;14.27;100.00;100546.13;7377866;19;20138;-75
2022/05/24 08:59:22;;;;;;;5.25;3.28;;;;;;;14.23;100.00;100560.22;7376920;19;20041;-75
2022/05/24 09:01:52;;;;;;;2.58;2.20;;;;;;;13.34;96.44;100566.78;7380210;19;20011;-75
2022/05/24 09:04:23;;;;;;;6.32;2.63;;;;;;;13.10;99.13;100579.09;7385514;19;20039;-74
2022/05/24 09:07:00;;;;;;;4.05;2.80;;;;;;;13.23;100.00;100590.50;7382031;19;20021;-73
2022/05/24 09:09:46;;;;;;;5.57;2.80;;;;;;;13.15;100.00;100586.97;7380719;19;20030;-72
2022/05/24 09:12:41;;;;;;;4.60;2.55;;;;;;;12.89;100.00;100578.22;7378518;19;20011;-74
2022/05/24 09:15:18;;;;;;;4.90;2.78;;;;;;;12.73;100.00;100588.75;7376439;19;20658;-73
2022/05/24 09:18:11;;;;;;;8.88;3.08;;;;;;;12.82;100.00;100597.53;7380998;19;20022;-72
2022/05/24 09:20:44;;;;;;;6.55;3.05;;;;;;;12.62;100.00;100606.28;7378166;19;20014;-73
2022/05/24 09:23:23;;;;;;;6.77;3.20;;;;;;;12.77;100.00;100600.16;7378426;19;20097;-73
2022/05/24 09:25:58;;;;;;;6.15;2.80;;;;;;;12.61;100.00;100611.53;7379708;19;20215;-73
2022/05/24 09:28:47;;;;;;;6.88;2.95;;;;;;;12.49;100.00;100615.03;7381450;19;20396;-74
2022/05/24 09:31:30;;;;;;;4.20;2.60;;;;;;;12.67;100.00;100620.31;7372316;19;20043;-73
2022/05/24 09:34:04;;;;;;;11.32;3.97;;;;;;;12.92;100.00;100622.97;7378433;19;20022;-73
2022/05/24 09:36:38;;;;;;;5.97;2.90;;;;;;;13.15;100.00;100618.56;7377746;19;20007;-73
2022/05/24 09:39:25;;;;;;;11.63;3.60;;;;;;;13.26;100.00;100627.38;7379886;19;20099;-74
2022/05/24 09:41:57;;;;;;;8.95;3.53;;;;;;;13.39;100.00;100634.38;7383575;19;20139;-74
2022/05/24 09:44:32;;;;;;;8.45;4.00;;;;;;;13.32;100.00;100637.91;7382238;19;20040;-73
2022/05/24 09:47:03;;;;;;;9.23;3.75;;;;;;;13.24;100.00;100633.53;7379679;19;20026;-74
2022/05/24 09:49:36;;;;;;;9.55;3.97;;;;;;;13.66;100.00;100636.06;7377260;19;20006;-70
2022/05/24 09:52:13;;;;;;;8.17;4.00;;;;;;;13.75;100.00;100637.78;7378669;19;20312;-70
2022/05/24 09:54:58;;;;;;;7.38;4.13;;;;;;;13.61;100.00;100651.00;7378732;19;20369;-70
2022/05/24 09:57:32;;;;;;;9.27;4.90;;;;;;;13.29;100.00;100653.72;7380188;19;20035;-70
2022/05/24 10:00:13;;;;;;;8.18;4.38;;;;;;;13.59;100.00;100652.75;7378728;19;20014;-70
2022/05/24 10:02:43;;;;;;;8.25;4.65;;;;;;;13.96;100.00;100650.91;7377598;19;20025;-74
2022/05/24 10:05:21;;;;;;;8.77;4.88;;;;;;;14.37;100.00;100648.09;7375674;19;20017;-73
2022/05/24 10:07:59;;;;;;;7.75;3.63;;;;;;;14.43;99.44;100664.81;7375167;19;20052;-70
2022/05/24 10:10:35;;;;;;;9.35;3.58;;;;;;;14.56;98.88;100675.25;7372322;19;20436;-69
2022/05/24 10:13:16;;;;;;;10.15;3.95;;;;;;;14.56;97.44;100661.22;7377360;19;20038;-73
2022/05/24 10:15:56;;;;;;;9.70;3.60;;;;;;;14.85;94.09;100676.84;7376792;19;20056;-70
2022/05/24 10:18:48;;;;;;;8.32;3.58;;;;;;;14.77;90.38;100665.44;7379872;19;20018;-71
2022/05/24 10:21:25;;;;;;;8.73;3.50;;;;;;;14.71;93.55;100666.38;7380864;19;20047;-69
2022/05/24 10:24:01;;;;;;;7.75;3.55;;;;;;;14.94;93.23;100679.41;7377136;19;20031;-72
2022/05/24 10:26:44;;;;;;;6.07;3.35;;;;;;;15.39;92.26;100678.16;7377584;19;20044;-75
2022/05/24 10:29:28;;;;;;;8.07;3.05;;;;;;;15.16;88.52;100690.69;7379025;19;20022;-69
2022/05/24 10:32:02;;;;;;;6.78;2.80;;;;;;;14.85;88.09;100692.69;7375882;19;20031;-70
2022/05/24 10:40:24;;;;;;;6.40;2.90;;;;;;;15.38;87.49;100692.28;7372543;19;20053;-69
2022/05/24 10:43:10;;;;;;;4.90;2.50;;;;;;;15.31;85.05;100691.44;7373989;19;20018;-70
2022/05/24 10:45:58;;;;;;;8.90;2.95;;;;;;;15.40;88.48;100698.41;7381440;19;20024;-69
2022/05/24 10:48:37;;;;;;;5.40;2.10;;;;;;;15.80;86.19;100695.41;7378789;19;20011;-71
2022/05/24 10:51:17;;;;;;;6.00;2.22;;;;;;;16.13;86.69;100699.44;7374207;19;20672;-71
2022/05/24 10:53:53;;;;;;;5.28;2.40;;;;;;;16.35;83.56;100696.53;7374973;19;20004;-71
2022/05/24 10:56:43;;;;;;;5.70;2.22;;;;;;;16.56;78.95;100692.72;7375457;19;20022;-70
2022/05/24 10:59:23;;;;;;;6.60;2.20;;;;;;;16.67;77.47;100701.41;7377237;19;20459;-70
2022/05/24 11:02:01;;;;;;;7.43;2.38;;;;;;;16.06;77.80;100708.34;7372463;19;20014;-70
2022/05/24 11:04:43;;;;;;;3.53;2.22;;;;;;;15.85;77.88;100712.09;7376325;19;20022;-71
2022/05/24 11:07:20;;;;;;;5.97;2.20;;;;;;;15.51;77.24;100708.91;7377719;19;20022;-71
2022/05/24 11:09:59;;;;;;;4.78;2.50;;;;;;;15.66;78.45;100709.63;7373531;19;20061;-71
2022/05/24 11:12:35;;;;;;;6.20;2.55;;;;;;;15.98;77.85;100706.66;7373999;19;20032;-71
2022/05/24 11:15:15;;;;;;;7.30;2.85;;;;;;;16.17;75.17;100712.63;7376060;19;20010;-71
2022/05/24 11:17:46;;;;;;;4.30;1.90;;;;;;;16.19;75.18;100707.31;7377192;19;20053;-71
2022/05/24 11:20:23;;;;;;;6.57;2.28;;;;;;;15.78;72.01;100700.72;7377654;19;20011;-75
2022/05/24 11:23:07;;;;;;;4.93;1.73;;;;;;;15.79;73.39;100709.50;7375477;19;20015;-70
2022/05/24 11:25:43;;;;;;;2.88;1.88;;;;;;;16.31;73.06;100713.34;7376716;19;20018;-71
2022/05/24 11:28:26;;;;;;;4.88;2.50;;;;;;;15.94;72.41;100720.81;7377836;19;20015;-70
2022/05/24 11:31:29;;;;;;;4.03;2.15;;;;;;;16.52;73.75;100714.84;7377265;19;20015;-71
2022/05/24 11:34:03;;;;;;;4.97;1.70;;;;;;;16.22;67.03;100733.75;7377818;19;20321;-70
2022/05/24 11:36:43;;;;;;;6.18;1.90;;;;;;;16.18;67.02;100724.97;7375527;19;20044;-70
2022/05/24 11:39:25;;;;;;;5.22;2.10;;;;;;;16.56;66.19;100742.16;7373475;19;20464;-76
2022/05/24 11:42:44;;;;;;;4.38;1.83;;;;;;;16.84;67.19;100738.25;7374306;19;20019;-74
2022/05/24 11:45:56;;;;;;;3.95;1.83;;;;;;;16.76;67.34;100741.88;7376169;19;20015;-73
2022/05/24 11:48:49;;;;;;;2.72;1.83;;;;;;;16.78;68.04;100737.44;7376787;19;20349;-75
2022/05/24 11:51:41;;;;;;;4.45;1.60;;;;;;;16.65;67.20;100747.34;7376655;19;20014;-74
2022/05/24 11:54:41;;;;;;;2.08;1.67;;;;;;;17.21;67.18;100743.88;7374290;19;20064;-74
2022/05/24 11:57:28;;;;;;;5.15;1.92;;;;;;;17.18;65.68;100743.06;7384597;19;20015;-71
2022/05/24 12:00:02;;;;;;;2.92;1.25;;;;;;;17.09;65.40;100749.38;7385562;19;20011;-75
2022/05/24 12:08:36;;;;;;;2.03;0.90;;;;;;;18.16;60.90;100758.16;7384230;19;20816;-77
2022/05/24 12:11:20;;;;;;;2.67;1.05;;;;;;;18.43;60.82;100772.69;7385442;19;20019;-73
2022/05/24 12:14:07;;;;;;;1.40;1.20;;;;;;;18.69;57.87;100764.22;7384867;19;20018;-76
2022/05/24 12:16:45;;;;;;;1.70;1.13;;;;;;;18.54;55.81;100771.56;7384735;19;20010;-72
2022/05/24 12:19:48;;;;;;;2.78;1.08;;;;;;;17.89;57.59;100775.47;7385324;19;20011;-70
2022/05/24 12:22:26;;;;;;;1.85;1.20;;;;;;;17.46;59.05;100777.97;7384442;19;20010;-72
2022/05/24 12:25:07;;;;;;;3.15;1.17;;;;;;;18.22;59.65;100781.94;7375351;19;20026;-71
2022/05/24 12:27:59;;;;;;;1.15;0.88;;;;;;;18.32;58.50;100783.50;7378076;19;20014;-72
2022/05/24 12:30:48;;;;;;;0.80;0.80;;;;;;;18.82;56.84;100777.16;7375773;19;20011;-70
2022/05/24 12:33:28;;;;;;;2.45;1.02;;;;;;;18.03;57.31;100785.84;7380341;19;20023;-75